sensor_id;sensor_type;location;lat;lon;timestamp;pressure;altitude;pressure_sealevel;temperature;humidity
70833;BME280;58452;59.418;17.962;2023-02-11T00:00:31;99954.50;;;1.27;93.37
70833;BME280;58452;59.418;17.962;2023-02-11T00:02:56;99952.78;;;1.28;93.79
70833;BME280;58452;59.418;17.962;2023-02-11T00:05:21;99952.25;;;1.48;94.29
70833;BME280;58452;59.418;17.962;2023-02-11T00:07:47;99946.94;;;1.51;93.42
70833;BME280;58452;59.418;17.962;2023-02-11T00:10:12;99940.53;;;1.58;93.19
70833;BME280;58452;59.418;17.962;2023-02-11T00:12:38;99933.84;;;1.57;92.99
70833;BME280;58452;59.418;17.962;2023-02-11T00:15:05;99937.28;;;1.56;92.11
70833;BME280;58452;59.418;17.962;2023-02-11T00:17:31;99932.00;;;1.59;92.27
70833;BME280;58452;59.418;17.962;2023-02-11T00:19:57;99934.66;;;1.58;92.41
70833;BME280;58452;59.418;17.962;2023-02-11T00:22:22;99931.69;;;1.51;92.54
70833;BME280;58452;59.418;17.962;2023-02-11T00:24:48;99925.41;;;1.57;92.57
70833;BME280;58452;59.418;17.962;2023-02-11T00:27:13;99912.56;;;1.58;92.99
70833;BME280;58452;59.418;17.962;2023-02-11T00:29:39;99921.72;;;1.61;92.61
70833;BME280;58452;59.418;17.962;2023-02-11T00:32:05;99922.81;;;1.69;92.27
70833;BME280;58452;59.418;17.962;2023-02-11T00:34:33;99931.56;;;1.65;91.95
70833;BME280;58452;59.418;17.962;2023-02-11T00:36:59;99918.53;;;1.70;92.16
70833;BME280;58452;59.418;17.962;2023-02-11T00:39:25;99919.13;;;1.86;92.05
70833;BME280;58452;59.418;17.962;2023-02-11T00:41:50;99902.28;;;1.96;91.66
70833;BME280;58452;59.418;17.962;2023-02-11T00:44:16;99897.09;;;1.98;91.27
70833;BME280;58452;59.418;17.962;2023-02-11T00:46:41;99897.91;;;1.98;90.50
70833;BME280;58452;59.418;17.962;2023-02-11T00:49:07;99894.22;;;2.02;89.99
70833;BME280;58452;59.418;17.962;2023-02-11T00:51:33;99900.41;;;2.11;90.43
70833;BME280;58452;59.418;17.962;2023-02-11T00:53:59;99900.69;;;2.19;89.38
70833;BME280;58452;59.418;17.962;2023-02-11T00:56:25;99897.91;;;2.22;89.10
70833;BME280;58452;59.418;17.962;2023-02-11T00:58:50;99908.59;;;2.27;88.60
70833;BME280;58452;59.418;17.962;2023-02-11T01:01:16;99905.53;;;2.22;88.68
70833;BME280;58452;59.418;17.962;2023-02-11T01:03:42;99895.41;;;2.33;87.75
70833;BME280;58452;59.418;17.962;2023-02-11T01:06:08;99899.13;;;2.40;87.51
70833;BME280;58452;59.418;17.962;2023-02-11T01:08:33;99896.25;;;2.44;87.76
70833;BME280;58452;59.418;17.962;2023-02-11T01:11:03;99896.25;;;2.44;87.15
70833;BME280;58452;59.418;17.962;2023-02-11T01:13:30;99891.03;;;2.46;87.16
70833;BME280;58452;59.418;17.962;2023-02-11T01:15:56;99897.34;;;2.53;86.83
70833;BME280;58452;59.418;17.962;2023-02-11T01:18:22;99899.28;;;2.50;86.53
70833;BME280;58452;59.418;17.962;2023-02-11T01:20:47;99900.53;;;2.44;86.45
70833;BME280;58452;59.418;17.962;2023-02-11T01:23:13;99894.81;;;2.53;86.96
70833;BME280;58452;59.418;17.962;2023-02-11T01:25:38;99888.53;;;2.57;86.12
70833;BME280;58452;59.418;17.962;2023-02-11T01:28:04;99890.97;;;2.59;86.30
70833;BME280;58452;59.418;17.962;2023-02-11T01:30:30;99890.88;;;2.60;86.56
70833;BME280;58452;59.418;17.962;2023-02-11T01:32:55;99882.06;;;2.64;86.06
70833;BME280;58452;59.418;17.962;2023-02-11T01:35:21;99871.69;;;2.67;86.08
70833;BME280;58452;59.418;17.962;2023-02-11T01:37:46;99884.28;;;2.69;85.40
70833;BME280;58452;59.418;17.962;2023-02-11T01:40:14;99873.19;;;2.70;85.55
70833;BME280;58452;59.418;17.962;2023-02-11T01:42:41;99885.56;;;2.63;85.60
70833;BME280;58452;59.418;17.962;2023-02-11T01:48:03;99898.50;;;2.25;87.16
70833;BME280;58452;59.418;17.962;2023-02-11T01:50:29;99902.53;;;2.28;86.55
70833;BME280;58452;59.418;17.962;2023-02-11T01:52:55;99899.94;;;2.40;86.99
70833;BME280;58452;59.418;17.962;2023-02-11T01:55:40;99893.41;;;2.49;86.55
70833;BME280;58452;59.418;17.962;2023-02-11T01:58:25;99904.34;;;2.15;88.06
70833;BME280;58452;59.418;17.962;2023-02-11T02:00:51;99897.00;;;2.23;88.47
70833;BME280;58452;59.418;17.962;2023-02-11T02:03:19;99882.53;;;2.23;88.48
70833;BME280;58452;59.418;17.962;2023-02-11T02:08:34;99875.66;;;2.13;90.26
70833;BME280;58452;59.418;17.962;2023-02-11T02:11:01;99882.53;;;2.00;90.68
70833;BME280;58452;59.418;17.962;2023-02-11T02:13:29;99885.88;;;2.00;91.41
70833;BME280;58452;59.418;17.962;2023-02-11T02:43:28;99925.41;;;1.93;93.63
70833;BME280;58452;59.418;17.962;2023-02-11T02:45:54;99923.78;;;1.92;93.73
70833;BME280;58452;59.418;17.962;2023-02-11T02:51:00;99929.88;;;2.26;92.88
70833;BME280;58452;59.418;17.962;2023-02-11T02:53:43;99935.00;;;1.89;94.39
70833;BME280;58452;59.418;17.962;2023-02-11T02:56:32;99934.00;;;1.79;95.99
70833;BME280;58452;59.418;17.962;2023-02-11T03:01:55;99939.25;;;1.89;96.64
70833;BME280;58452;59.418;17.962;2023-02-11T03:04:29;99938.16;;;1.80;97.41
70833;BME280;58452;59.418;17.962;2023-02-11T03:07:18;99945.69;;;1.82;98.01
70833;BME280;58452;59.418;17.962;2023-02-11T03:09:54;99951.38;;;1.85;98.14
70833;BME280;58452;59.418;17.962;2023-02-11T03:12:23;99955.13;;;1.92;98.20
70833;BME280;58452;59.418;17.962;2023-02-11T03:14:51;99961.19;;;2.03;98.01
70833;BME280;58452;59.418;17.962;2023-02-11T03:17:17;99971.38;;;2.03;97.68
70833;BME280;58452;59.418;17.962;2023-02-11T03:19:45;99970.03;;;2.10;97.51
70833;BME280;58452;59.418;17.962;2023-02-11T03:22:17;99970.22;;;2.19;97.23
70833;BME280;58452;59.418;17.962;2023-02-11T03:24:44;99971.56;;;2.12;96.66
70833;BME280;58452;59.418;17.962;2023-02-11T03:27:26;99982.06;;;2.08;96.22
70833;BME280;58452;59.418;17.962;2023-02-11T03:30:12;99991.94;;;2.00;96.33
70833;BME280;58452;59.418;17.962;2023-02-11T03:35:19;99986.69;;;1.77;96.41
70833;BME280;58452;59.418;17.962;2023-02-11T03:37:56;99984.97;;;1.78;95.68
70833;BME280;58452;59.418;17.962;2023-02-11T03:40:27;99981.13;;;1.72;95.25
70833;BME280;58452;59.418;17.962;2023-02-11T03:42:59;99987.94;;;1.72;94.10
70833;BME280;58452;59.418;17.962;2023-02-11T03:45:27;99991.00;;;1.64;92.94
70833;BME280;58452;59.418;17.962;2023-02-11T03:48:00;99994.66;;;1.60;92.13
70833;BME280;58452;59.418;17.962;2023-02-11T03:50:29;99996.06;;;1.52;91.72
70833;BME280;58452;59.418;17.962;2023-02-11T03:52:58;100005.25;;;1.54;91.27
70833;BME280;58452;59.418;17.962;2023-02-11T03:55:26;100017.88;;;1.43;90.70
70833;BME280;58452;59.418;17.962;2023-02-11T03:57:52;100026.41;;;1.42;90.79
70833;BME280;58452;59.418;17.962;2023-02-11T04:00:18;100027.22;;;1.42;90.43
70833;BME280;58452;59.418;17.962;2023-02-11T04:02:43;100032.91;;;1.46;90.31
70833;BME280;58452;59.418;17.962;2023-02-11T04:05:13;100044.16;;;1.17;91.08
70833;BME280;58452;59.418;17.962;2023-02-11T04:07:39;100045.63;;;1.07;91.68
70833;BME280;58452;59.418;17.962;2023-02-11T04:10:05;100047.06;;;1.11;91.73
70833;BME280;58452;59.418;17.962;2023-02-11T04:12:30;100052.00;;;1.14;91.65
70833;BME280;58452;59.418;17.962;2023-02-11T04:14:56;100057.84;;;1.14;91.59
70833;BME280;58452;59.418;17.962;2023-02-11T04:17:21;100060.53;;;0.86;92.71
70833;BME280;58452;59.418;17.962;2023-02-11T04:19:47;100061.56;;;0.83;92.68
70833;BME280;58452;59.418;17.962;2023-02-11T04:22:12;100066.50;;;0.72;92.40
70833;BME280;58452;59.418;17.962;2023-02-11T04:24:38;100073.28;;;0.72;92.07
70833;BME280;58452;59.418;17.962;2023-02-11T04:27:03;100074.63;;;0.77;91.77
70833;BME280;58452;59.418;17.962;2023-02-11T04:29:29;100078.09;;;0.76;92.35
70833;BME280;58452;59.418;17.962;2023-02-11T04:31:54;100087.63;;;0.73;91.57
70833;BME280;58452;59.418;17.962;2023-02-11T04:34:21;100091.81;;;0.60;91.60
70833;BME280;58452;59.418;17.962;2023-02-11T04:36:46;100094.09;;;0.50;91.82
70833;BME280;58452;59.418;17.962;2023-02-11T04:39:12;100097.16;;;0.69;92.23
70833;BME280;58452;59.418;17.962;2023-02-11T04:41:37;100103.53;;;0.62;91.04
70833;BME280;58452;59.418;17.962;2023-02-11T04:44:03;100101.44;;;0.55;91.30
70833;BME280;58452;59.418;17.962;2023-02-11T04:46:29;100118.41;;;0.54;92.44
70833;BME280;58452;59.418;17.962;2023-02-11T04:48:55;100133.88;;;0.64;91.75
70833;BME280;58452;59.418;17.962;2023-02-11T04:51:20;100139.06;;;0.62;91.09
70833;BME280;58452;59.418;17.962;2023-02-11T04:53:46;100155.84;;;0.65;90.77
70833;BME280;58452;59.418;17.962;2023-02-11T04:56:11;100157.94;;;0.44;91.09
70833;BME280;58452;59.418;17.962;2023-02-11T04:58:37;100165.63;;;0.42;89.95
70833;BME280;58452;59.418;17.962;2023-02-11T05:01:07;100170.09;;;0.39;90.48
70833;BME280;58452;59.418;17.962;2023-02-11T05:03:33;100168.25;;;0.41;89.13
70833;BME280;58452;59.418;17.962;2023-02-11T05:05:59;100168.91;;;0.30;89.19
70833;BME280;58452;59.418;17.962;2023-02-11T05:08:25;100171.44;;;0.30;88.10
70833;BME280;58452;59.418;17.962;2023-02-11T05:10:50;100184.94;;;0.31;87.79
70833;BME280;58452;59.418;17.962;2023-02-11T05:13:15;100187.66;;;0.28;87.68
70833;BME280;58452;59.418;17.962;2023-02-11T05:15:41;100203.72;;;0.28;87.01
70833;BME280;58452;59.418;17.962;2023-02-11T05:18:06;100208.34;;;0.22;86.84
70833;BME280;58452;59.418;17.962;2023-02-11T05:20:32;100222.09;;;0.18;87.06
70833;BME280;58452;59.418;17.962;2023-02-11T05:22:57;100228.63;;;0.22;85.70
70833;BME280;58452;59.418;17.962;2023-02-11T05:25:23;100237.16;;;0.21;84.63
70833;BME280;58452;59.418;17.962;2023-02-11T05:27:48;100237.50;;;0.15;85.13
70833;BME280;58452;59.418;17.962;2023-02-11T05:30:14;100238.59;;;0.11;85.05
70833;BME280;58452;59.418;17.962;2023-02-11T05:32:40;100245.78;;;-0.12;83.55
70833;BME280;58452;59.418;17.962;2023-02-11T05:35:05;100251.94;;;-0.02;84.29
70833;BME280;58452;59.418;17.962;2023-02-11T05:37:31;100264.47;;;0.02;84.70
70833;BME280;58452;59.418;17.962;2023-02-11T05:39:57;100265.88;;;-0.09;84.34
70833;BME280;58452;59.418;17.962;2023-02-11T05:42:22;100265.53;;;-0.03;84.67
70833;BME280;58452;59.418;17.962;2023-02-11T05:44:48;100276.41;;;-0.01;84.83
70833;BME280;58452;59.418;17.962;2023-02-11T05:47:13;100295.66;;;0.04;84.81
70833;BME280;58452;59.418;17.962;2023-02-11T05:49:38;100304.31;;;-0.01;84.43
70833;BME280;58452;59.418;17.962;2023-02-11T05:52:04;100300.09;;;-0.16;84.08
70833;BME280;58452;59.418;17.962;2023-02-11T05:54:29;100326.16;;;-0.14;83.57
70833;BME280;58452;59.418;17.962;2023-02-11T05:56:55;100328.56;;;-0.26;83.38
70833;BME280;58452;59.418;17.962;2023-02-11T05:59:20;100338.63;;;-0.25;83.73
70833;BME280;58452;59.418;17.962;2023-02-11T06:01:46;100339.03;;;-0.17;83.40
70833;BME280;58452;59.418;17.962;2023-02-11T06:04:11;100350.41;;;-0.24;84.29
70833;BME280;58452;59.418;17.962;2023-02-11T06:06:37;100354.59;;;-0.23;84.44
70833;BME280;58452;59.418;17.962;2023-02-11T06:09:02;100358.59;;;-0.19;84.82
70833;BME280;58452;59.418;17.962;2023-02-11T06:11:28;100371.09;;;-0.16;84.08
70833;BME280;58452;59.418;17.962;2023-02-11T06:13:53;100375.34;;;-0.16;84.39
70833;BME280;58452;59.418;17.962;2023-02-11T06:16:19;100401.03;;;-0.07;84.77
70833;BME280;58452;59.418;17.962;2023-02-11T06:18:44;100403.31;;;-0.02;84.51
70833;BME280;58452;59.418;17.962;2023-02-11T06:21:10;100402.56;;;-0.51;84.04
70833;BME280;58452;59.418;17.962;2023-02-11T06:23:37;100401.75;;;-0.36;83.41
70833;BME280;58452;59.418;17.962;2023-02-11T06:26:08;100418.03;;;-0.40;83.70
70833;BME280;58452;59.418;17.962;2023-02-11T06:28:38;100422.22;;;-0.23;82.99
70833;BME280;58452;59.418;17.962;2023-02-11T06:31:05;100431.53;;;-0.24;82.16
70833;BME280;58452;59.418;17.962;2023-02-11T06:33:31;100436.03;;;-0.29;82.08
70833;BME280;58452;59.418;17.962;2023-02-11T06:35:56;100443.78;;;-0.32;82.74
70833;BME280;58452;59.418;17.962;2023-02-11T06:38:22;100440.78;;;-0.38;82.30
70833;BME280;58452;59.418;17.962;2023-02-11T06:40:48;100447.16;;;-0.31;82.68
70833;BME280;58452;59.418;17.962;2023-02-11T06:43:14;100445.63;;;-0.51;82.69
70833;BME280;58452;59.418;17.962;2023-02-11T06:45:39;100451.78;;;-0.39;83.06
70833;BME280;58452;59.418;17.962;2023-02-11T06:48:05;100453.19;;;-0.50;82.61
70833;BME280;58452;59.418;17.962;2023-02-11T06:50:30;100462.44;;;-0.48;82.66
70833;BME280;58452;59.418;17.962;2023-02-11T06:52:58;100469.66;;;-0.58;82.77
70833;BME280;58452;59.418;17.962;2023-02-11T06:55:23;100473.06;;;-0.42;82.27
70833;BME280;58452;59.418;17.962;2023-02-11T06:57:48;100488.50;;;-0.46;82.52
70833;BME280;58452;59.418;17.962;2023-02-11T07:00:14;100506.94;;;-0.60;82.64
70833;BME280;58452;59.418;17.962;2023-02-11T07:02:40;100518.72;;;-0.76;84.23
70833;BME280;58452;59.418;17.962;2023-02-11T07:05:06;100525.50;;;-0.77;84.42
70833;BME280;58452;59.418;17.962;2023-02-11T07:07:32;100535.28;;;-0.86;84.28
70833;BME280;58452;59.418;17.962;2023-02-11T07:09:58;100550.16;;;-0.80;83.97
70833;BME280;58452;59.418;17.962;2023-02-11T07:12:23;100555.84;;;-0.92;84.10
70833;BME280;58452;59.418;17.962;2023-02-11T07:14:49;100569.97;;;-1.06;84.63
70833;BME280;58452;59.418;17.962;2023-02-11T07:17:14;100584.56;;;-1.11;84.95
70833;BME280;58452;59.418;17.962;2023-02-11T07:19:40;100590.69;;;-0.98;84.89
70833;BME280;58452;59.418;17.962;2023-02-11T07:22:05;100601.34;;;-0.91;84.68
70833;BME280;58452;59.418;17.962;2023-02-11T07:24:31;100608.69;;;-0.85;84.03
70833;BME280;58452;59.418;17.962;2023-02-11T07:26:56;100619.22;;;-0.94;84.18
70833;BME280;58452;59.418;17.962;2023-02-11T07:29:22;100621.56;;;-0.89;84.29
70833;BME280;58452;59.418;17.962;2023-02-11T07:31:47;100623.19;;;-0.88;84.16
70833;BME280;58452;59.418;17.962;2023-02-11T07:34:13;100639.75;;;-0.81;84.34
70833;BME280;58452;59.418;17.962;2023-02-11T07:36:38;100647.78;;;-0.73;84.40
70833;BME280;58452;59.418;17.962;2023-02-11T07:39:04;100651.38;;;-0.77;84.08
70833;BME280;58452;59.418;17.962;2023-02-11T07:41:29;100653.69;;;-0.73;84.14
70833;BME280;58452;59.418;17.962;2023-02-11T07:43:54;100652.72;;;-0.70;83.31
70833;BME280;58452;59.418;17.962;2023-02-11T07:46:23;100661.63;;;-0.80;83.08
70833;BME280;58452;59.418;17.962;2023-02-11T07:48:49;100680.97;;;-0.78;83.47
70833;BME280;58452;59.418;17.962;2023-02-11T07:51:17;100695.06;;;-1.10;84.41
70833;BME280;58452;59.418;17.962;2023-02-11T07:53:43;100706.31;;;-0.96;84.64
70833;BME280;58452;59.418;17.962;2023-02-11T07:56:09;100712.19;;;-0.96;85.34
70833;BME280;58452;59.418;17.962;2023-02-11T07:58:36;100718.13;;;-0.78;84.16
70833;BME280;58452;59.418;17.962;2023-02-11T08:01:03;100724.72;;;-0.93;84.16
70833;BME280;58452;59.418;17.962;2023-02-11T08:03:30;100738.28;;;-0.94;84.45
70833;BME280;58452;59.418;17.962;2023-02-11T08:05:56;100754.22;;;-1.11;84.86
70833;BME280;58452;59.418;17.962;2023-02-11T08:08:22;100760.66;;;-1.04;85.25
70833;BME280;58452;59.418;17.962;2023-02-11T08:10:49;100764.00;;;-0.84;86.00
70833;BME280;58452;59.418;17.962;2023-02-11T08:13:15;100781.88;;;-0.87;84.97
70833;BME280;58452;59.418;17.962;2023-02-11T08:15:40;100794.47;;;-1.05;86.69
70833;BME280;58452;59.418;17.962;2023-02-11T08:18:06;100796.63;;;-1.16;86.64
70833;BME280;58452;59.418;17.962;2023-02-11T08:20:32;100799.81;;;-1.31;86.50
70833;BME280;58452;59.418;17.962;2023-02-11T08:22:58;100815.66;;;-1.26;87.47
70833;BME280;58452;59.418;17.962;2023-02-11T08:25:23;100813.88;;;-1.24;86.04
70833;BME280;58452;59.418;17.962;2023-02-11T08:27:49;100835.78;;;-1.23;87.58
70833;BME280;58452;59.418;17.962;2023-02-11T08:30:15;100845.16;;;-1.25;86.75
70833;BME280;58452;59.418;17.962;2023-02-11T08:32:40;100854.00;;;-1.15;86.90
70833;BME280;58452;59.418;17.962;2023-02-11T08:35:06;100861.03;;;-1.21;86.65
70833;BME280;58452;59.418;17.962;2023-02-11T08:37:32;100862.06;;;-1.25;86.69
70833;BME280;58452;59.418;17.962;2023-02-11T08:39:58;100874.63;;;-1.24;86.47
70833;BME280;58452;59.418;17.962;2023-02-11T08:42:23;100892.91;;;-1.17;86.24
70833;BME280;58452;59.418;17.962;2023-02-11T08:44:49;100909.56;;;-1.12;85.32
70833;BME280;58452;59.418;17.962;2023-02-11T08:47:14;100924.91;;;-1.15;84.83
70833;BME280;58452;59.418;17.962;2023-02-11T08:49:39;100935.72;;;-1.11;85.94
70833;BME280;58452;59.418;17.962;2023-02-11T08:52:07;100948.94;;;-1.05;85.86
70833;BME280;58452;59.418;17.962;2023-02-11T08:54:32;100959.59;;;-0.96;85.20
70833;BME280;58452;59.418;17.962;2023-02-11T08:56:58;100966.94;;;-0.90;84.92
70833;BME280;58452;59.418;17.962;2023-02-11T08:59:26;100973.41;;;-0.83;84.33
70833;BME280;58452;59.418;17.962;2023-02-11T09:01:51;100976.56;;;-0.99;83.15
70833;BME280;58452;59.418;17.962;2023-02-11T09:04:17;100994.84;;;-1.12;84.61
70833;BME280;58452;59.418;17.962;2023-02-11T09:06:43;101001.19;;;-1.02;84.38
70833;BME280;58452;59.418;17.962;2023-02-11T09:09:12;101004.50;;;-1.00;83.88
70833;BME280;58452;59.418;17.962;2023-02-11T09:11:39;101017.78;;;-0.95;82.91
70833;BME280;58452;59.418;17.962;2023-02-11T09:14:06;101028.69;;;-0.93;82.50
70833;BME280;58452;59.418;17.962;2023-02-11T09:16:34;101038.66;;;-0.88;82.60
70833;BME280;58452;59.418;17.962;2023-02-11T09:19:01;101046.78;;;-1.02;82.92
70833;BME280;58452;59.418;17.962;2023-02-11T09:21:28;101054.19;;;-0.98;83.05
70833;BME280;58452;59.418;17.962;2023-02-11T09:23:53;101067.81;;;-1.00;83.16
70833;BME280;58452;59.418;17.962;2023-02-11T09:26:24;101087.91;;;-0.95;82.21
70833;BME280;58452;59.418;17.962;2023-02-11T09:28:50;101102.03;;;-0.90;81.02
70833;BME280;58452;59.418;17.962;2023-02-11T09:31:19;101105.78;;;-0.78;81.33
70833;BME280;58452;59.418;17.962;2023-02-11T09:33:47;101113.63;;;-0.84;79.94
70833;BME280;58452;59.418;17.962;2023-02-11T09:36:18;101122.66;;;-0.77;79.50
70833;BME280;58452;59.418;17.962;2023-02-11T09:38:44;101127.34;;;-0.68;79.77
70833;BME280;58452;59.418;17.962;2023-02-11T09:44:01;101156.59;;;-0.81;80.25
70833;BME280;58452;59.418;17.962;2023-02-11T09:46:34;101165.19;;;-0.85;80.12
70833;BME280;58452;59.418;17.962;2023-02-11T09:49:01;101173.06;;;-1.15;80.44
70833;BME280;58452;59.418;17.962;2023-02-11T09:51:38;101188.50;;;-0.99;80.85
70833;BME280;58452;59.418;17.962;2023-02-11T09:54:21;101195.66;;;-0.87;80.26
70833;BME280;58452;59.418;17.962;2023-02-11T09:56:48;101193.47;;;-0.74;80.27
70833;BME280;58452;59.418;17.962;2023-02-11T09:59:15;101201.97;;;-0.75;80.27
70833;BME280;58452;59.418;17.962;2023-02-11T10:02:11;101205.97;;;-0.70;80.23
70833;BME280;58452;59.418;17.962;2023-02-11T10:07:47;101224.91;;;-1.02;81.37
70833;BME280;58452;59.418;17.962;2023-02-11T10:10:49;101226.56;;;-1.01;80.76
70833;BME280;58452;59.418;17.962;2023-02-11T10:14:02;101231.63;;;-1.01;80.63
70833;BME280;58452;59.418;17.962;2023-02-11T10:16:40;101239.09;;;-1.21;80.63
70833;BME280;58452;59.418;17.962;2023-02-11T10:22:14;101249.69;;;-1.10;81.39
70833;BME280;58452;59.418;17.962;2023-02-11T10:24:50;101259.16;;;-1.15;81.52
70833;BME280;58452;59.418;17.962;2023-02-11T10:27:20;101265.84;;;-1.14;80.72
70833;BME280;58452;59.418;17.962;2023-02-11T10:29:53;101263.16;;;-1.09;81.30
70833;BME280;58452;59.418;17.962;2023-02-11T10:34:55;101283.03;;;-0.99;80.60
70833;BME280;58452;59.418;17.962;2023-02-11T10:37:23;101288.56;;;-1.11;80.64
70833;BME280;58452;59.418;17.962;2023-02-11T10:39:49;101296.16;;;-1.11;80.15
70833;BME280;58452;59.418;17.962;2023-02-11T10:42:14;101298.75;;;-1.12;80.40
70833;BME280;58452;59.418;17.962;2023-02-11T10:44:59;101307.94;;;-1.10;81.05
70833;BME280;58452;59.418;17.962;2023-02-11T10:47:29;101309.16;;;-0.96;80.56
70833;BME280;58452;59.418;17.962;2023-02-11T10:49:57;101320.66;;;-1.11;80.53
70833;BME280;58452;59.418;17.962;2023-02-11T10:52:28;101324.56;;;-1.03;80.21
70833;BME280;58452;59.418;17.962;2023-02-11T10:57:35;101345.66;;;-1.02;80.39
70833;BME280;58452;59.418;17.962;2023-02-11T11:00:51;101350.00;;;-1.06;80.05
70833;BME280;58452;59.418;17.962;2023-02-11T11:03:24;101357.97;;;-1.16;80.12
70833;BME280;58452;59.418;17.962;2023-02-11T11:08:17;101380.84;;;-1.18;78.02
70833;BME280;58452;59.418;17.962;2023-02-11T11:10:48;101376.31;;;-1.10;78.18
70833;BME280;58452;59.418;17.962;2023-02-11T11:18:40;101409.97;;;-1.06;78.74
70833;BME280;58452;59.418;17.962;2023-02-11T11:23:38;101431.88;;;-1.30;80.18
70833;BME280;58452;59.418;17.962;2023-02-11T11:26:06;101439.88;;;-1.17;79.65
70833;BME280;58452;59.418;17.962;2023-02-11T11:31:13;101454.75;;;-1.07;78.89
70833;BME280;58452;59.418;17.962;2023-02-11T11:33:42;101452.63;;;-0.94;79.05
70833;BME280;58452;59.418;17.962;2023-02-11T11:36:11;101468.19;;;-1.05;79.38
70833;BME280;58452;59.418;17.962;2023-02-11T11:38:55;101472.53;;;-0.83;78.94
70833;BME280;58452;59.418;17.962;2023-02-11T11:41:32;101481.00;;;-0.84;78.33
70833;BME280;58452;59.418;17.962;2023-02-11T11:44:27;101493.13;;;-0.68;77.88
70833;BME280;58452;59.418;17.962;2023-02-11T11:52:59;101530.16;;;-0.88;77.68
70833;BME280;58452;59.418;17.962;2023-02-11T11:55:28;101539.25;;;-0.83;77.83
70833;BME280;58452;59.418;17.962;2023-02-11T11:57:56;101527.78;;;-0.94;78.77
70833;BME280;58452;59.418;17.962;2023-02-11T12:09:08;101567.94;;;-0.82;78.17
70833;BME280;58452;59.418;17.962;2023-02-11T12:22:11;101615.97;;;-0.52;76.11
70833;BME280;58452;59.418;17.962;2023-02-11T12:25:01;101617.03;;;-0.85;76.84
70833;BME280;58452;59.418;17.962;2023-02-11T12:28:50;101622.41;;;-0.69;76.59
70833;BME280;58452;59.418;17.962;2023-02-11T12:39:11;101648.38;;;-0.35;74.59
70833;BME280;58452;59.418;17.962;2023-02-11T12:54:04;101669.53;;;-0.36;74.39
70833;BME280;58452;59.418;17.962;2023-02-11T12:56:36;101678.31;;;-0.20;74.75
70833;BME280;58452;59.418;17.962;2023-02-11T12:59:07;101691.56;;;-0.12;74.50
70833;BME280;58452;59.418;17.962;2023-02-11T13:01:39;101694.00;;;-0.35;73.30
70833;BME280;58452;59.418;17.962;2023-02-11T13:04:16;101704.84;;;-0.30;73.52
70833;BME280;58452;59.418;17.962;2023-02-11T13:06:50;101713.69;;;-0.15;73.25
70833;BME280;58452;59.418;17.962;2023-02-11T13:09:23;101716.53;;;0.00;72.32
70833;BME280;58452;59.418;17.962;2023-02-11T13:11:54;101725.97;;;0.22;71.56
70833;BME280;58452;59.418;17.962;2023-02-11T13:14:29;101729.88;;;-0.19;72.67
70833;BME280;58452;59.418;17.962;2023-02-11T13:16:57;101727.84;;;-0.10;72.51
70833;BME280;58452;59.418;17.962;2023-02-11T13:22:16;101733.94;;;0.36;70.70
70833;BME280;58452;59.418;17.962;2023-02-11T13:25:04;101744.09;;;0.36;69.40
70833;BME280;58452;59.418;17.962;2023-02-11T13:27:44;101753.75;;;0.51;69.80
70833;BME280;58452;59.418;17.962;2023-02-11T13:30:21;101757.47;;;0.41;69.73
70833;BME280;58452;59.418;17.962;2023-02-11T13:37:50;101766.13;;;0.60;67.39
70833;BME280;58452;59.418;17.962;2023-02-11T13:40:21;101766.06;;;0.37;69.05
70833;BME280;58452;59.418;17.962;2023-02-11T13:45:27;101772.16;;;0.33;69.40
70833;BME280;58452;59.418;17.962;2023-02-11T13:47:58;101783.34;;;0.26;69.68
70833;BME280;58452;59.418;17.962;2023-02-11T13:50:26;101792.75;;;-0.03;70.00
70833;BME280;58452;59.418;17.962;2023-02-11T13:52:57;101798.41;;;-0.21;70.56
70833;BME280;58452;59.418;17.962;2023-02-11T13:55:24;101799.66;;;-0.34;70.79
70833;BME280;58452;59.418;17.962;2023-02-11T14:14:28;101842.84;;;-0.09;69.32
70833;BME280;58452;59.418;17.962;2023-02-11T14:19:40;101865.41;;;-0.28;70.09
70833;BME280;58452;59.418;17.962;2023-02-11T14:22:13;101868.50;;;-0.47;70.92
70833;BME280;58452;59.418;17.962;2023-02-11T14:33:18;101908.41;;;-0.54;71.02
70833;BME280;58452;59.418;17.962;2023-02-11T14:43:51;101949.84;;;-0.86;72.39
70833;BME280;58452;59.418;17.962;2023-02-11T14:46:18;101952.09;;;-0.75;72.62
70833;BME280;58452;59.418;17.962;2023-02-11T14:48:47;101960.56;;;-0.76;72.54
70833;BME280;58452;59.418;17.962;2023-02-11T14:51:20;101972.69;;;-0.87;73.11
70833;BME280;58452;59.418;17.962;2023-02-11T14:53:50;101967.00;;;-0.97;73.30
70833;BME280;58452;59.418;17.962;2023-02-11T14:56:28;101976.88;;;-0.86;73.26
70833;BME280;58452;59.418;17.962;2023-02-11T14:58:55;101972.28;;;-0.72;72.85
70833;BME280;58452;59.418;17.962;2023-02-11T15:01:33;101975.34;;;-0.92;72.86
70833;BME280;58452;59.418;17.962;2023-02-11T15:04:02;101978.75;;;-0.93;73.92
70833;BME280;58452;59.418;17.962;2023-02-11T15:06:40;101981.63;;;-1.07;73.79
70833;BME280;58452;59.418;17.962;2023-02-11T15:11:40;101988.31;;;-1.06;74.35
70833;BME280;58452;59.418;17.962;2023-02-11T15:14:10;102001.94;;;-1.10;73.84
70833;BME280;58452;59.418;17.962;2023-02-11T15:16:41;102005.19;;;-1.03;74.40
70833;BME280;58452;59.418;17.962;2023-02-11T15:19:23;102014.09;;;-0.88;74.08
70833;BME280;58452;59.418;17.962;2023-02-11T15:21:51;102021.75;;;-0.91;73.02
70833;BME280;58452;59.418;17.962;2023-02-11T15:29:23;102037.38;;;-1.45;75.40
70833;BME280;58452;59.418;17.962;2023-02-11T15:32:02;102048.34;;;-1.46;76.21
70833;BME280;58452;59.418;17.962;2023-02-11T15:34:28;102061.94;;;-1.50;76.11
70833;BME280;58452;59.418;17.962;2023-02-11T15:36:54;102068.75;;;-1.52;75.93
70833;BME280;58452;59.418;17.962;2023-02-11T15:39:35;102077.34;;;-1.59;76.32
70833;BME280;58452;59.418;17.962;2023-02-11T15:42:22;102075.81;;;-1.66;76.55
70833;BME280;58452;59.418;17.962;2023-02-11T15:45:06;102078.19;;;-1.59;76.13